Time;durP1;ratioP1;P1;durP2;ratioP2;P2;SDS_P1;SDS_P2;PMS_P1;PMS_P2;Temp;Humidity;BMP_temperature;BMP_pressure;BME280_temperature;BME280_humidity;BME280_pressure;Samples;Min_cycle;Max_cycle;Signal;HPM_P1;HPM_P2
2023/10/22 00:00:31;;;;;;;35.28;16.65;;;;;;;15.03;100.00;99296.03;5588611;31;34203;-74
2023/10/22 00:03:34;;;;;;;35.83;16.17;;;;;;;14.97;100.00;99297.72;5588623;31;34021;-74
2023/10/22 00:06:37;;;;;;;33.90;17.33;;;;;;;14.92;100.00;99304.78;5588535;31;34047;-74
2023/10/22 00:09:40;;;;;;;31.27;16.55;;;;;;;14.90;100.00;99304.19;5588433;31;34029;-74
2023/10/22 00:12:43;;;;;;;29.80;15.77;;;;;;;14.87;100.00;99284.06;5588350;31;34424;-74
2023/10/22 00:15:46;;;;;;;33.63;16.12;;;;;;;14.77;100.00;99273.91;5588389;31;34312;-74
2023/10/22 00:18:50;;;;;;;38.13;17.17;;;;;;;14.82;100.00;99264.41;5588816;31;34068;-74
2023/10/22 00:21:53;;;;;;;37.65;18.23;;;;;;;14.84;100.00;99255.16;5590810;31;34281;-74
2023/10/22 00:24:56;;;;;;;35.47;15.95;;;;;;;14.80;100.00;99245.97;5591064;31;34031;-74
2023/10/22 00:27:59;;;;;;;28.98;15.50;;;;;;;14.81;100.00;99236.91;5590781;31;34034;-73
2023/10/22 00:31:02;;;;;;;29.17;16.67;;;;;;;14.82;100.00;99249.22;5590625;31;33974;-74
2023/10/22 00:34:05;;;;;;;38.78;17.60;;;;;;;14.82;100.00;99270.56;5591024;31;34054;-74
2023/10/22 00:37:08;;;;;;;37.88;17.70;;;;;;;14.83;100.00;99276.72;5590535;31;34100;-74
2023/10/22 00:40:11;;;;;;;33.58;16.40;;;;;;;14.83;100.00;99287.41;5590492;31;33984;-74
2023/10/22 00:43:14;;;;;;;33.35;16.10;;;;;;;14.84;100.00;99281.84;5590655;31;34183;-74
2023/10/22 00:46:23;;;;;;;32.83;15.65;;;;;;;14.90;100.00;99278.31;5590320;31;33160;-74
2023/10/22 00:49:26;;;;;;;31.60;16.27;;;;;;;14.92;100.00;99275.41;5590534;31;33992;-74
2023/10/22 00:52:29;;;;;;;31.48;15.85;;;;;;;14.91;100.00;99273.78;5590480;31;33891;-75
2023/10/22 00:55:36;;;;;;;34.95;16.27;;;;;;;14.95;100.00;99270.44;5590411;31;33849;-74
2023/10/22 00:58:39;;;;;;;32.70;17.05;;;;;;;14.99;100.00;99258.28;5589715;31;34069;-74
2023/10/22 01:01:42;;;;;;;34.03;17.35;;;;;;;14.99;100.00;99258.28;5590422;31;34703;-74
2023/10/22 01:04:45;;;;;;;30.23;16.67;;;;;;;14.96;100.00;99250.69;5590365;31;34006;-74
2023/10/22 01:07:48;;;;;;;32.63;16.45;;;;;;;14.97;100.00;99256.84;5589656;31;34649;-74
2023/10/22 01:10:51;;;;;;;35.38;16.15;;;;;;;14.96;100.00;99261.37;5590338;31;33985;-74
2023/10/22 01:13:55;;;;;;;34.40;17.23;;;;;;;14.98;100.00;99256.63;5590280;31;34042;-74
2023/10/22 01:16:58;;;;;;;32.25;17.20;;;;;;;14.99;100.00;99260.94;5589530;31;34760;-74
2023/10/22 01:20:01;;;;;;;29.50;13.55;;;;;;;15.03;100.00;99264.78;5590195;31;33982;-74
2023/10/22 01:23:04;;;;;;;29.00;15.05;;;;;;;15.12;100.00;99273.31;5590195;31;34541;-74
2023/10/22 01:26:07;;;;;;;25.85;13.43;;;;;;;15.14;100.00;99277.41;5590166;31;34222;-74
2023/10/22 01:29:10;;;;;;;24.00;13.55;;;;;;;15.18;100.00;99275.09;5590412;31;34007;-74
2023/10/22 01:32:13;;;;;;;26.73;11.57;;;;;;;15.17;100.00;99271.59;5589465;31;34073;-74
2023/10/22 01:35:16;;;;;;;25.58;12.55;;;;;;;15.17;100.00;99258.25;5590134;31;33921;-74
2023/10/22 01:38:19;;;;;;;30.40;12.50;;;;;;;15.21;100.00;99255.94;5589734;31;34084;-74
2023/10/22 01:41:23;;;;;;;25.20;12.02;;;;;;;15.21;100.00;99261.28;5589493;31;33945;-74
2023/10/22 01:44:26;;;;;;;31.17;12.63;;;;;;;15.22;100.00;99255.72;5587776;31;34092;-74
2023/10/22 01:47:29;;;;;;;22.13;11.25;;;;;;;15.25;100.00;99259.00;5580910;31;34077;-74
2023/10/22 01:50:32;;;;;;;21.87;11.00;;;;;;;15.22;100.00;99258.41;5589226;31;34554;-74
2023/10/22 01:53:35;;;;;;;24.95;10.82;;;;;;;15.28;100.00;99250.53;5589975;31;34921;-74
2023/10/22 01:56:39;;;;;;;27.52;10.00;;;;;;;15.19;100.00;99255.38;5589078;31;33971;-74
2023/10/22 01:59:43;;;;;;;23.87;9.85;;;;;;;15.13;100.00;99245.56;5589097;31;34029;-75
2023/10/22 02:02:45;;;;;;;21.75;9.20;;;;;;;15.12;100.00;99252.75;5589956;31;33983;-74
2023/10/22 02:05:48;;;;;;;23.02;9.18;;;;;;;15.17;100.00;99260.09;5589851;31;33873;-75
2023/10/22 02:08:51;;;;;;;17.37;7.75;;;;;;;15.09;100.00;99263.09;5589808;31;34781;-74
2023/10/22 02:11:54;;;;;;;20.33;7.43;;;;;;;15.20;100.00;99259.66;5589931;31;34050;-75
2023/10/22 02:14:58;;;;;;;18.02;6.93;;;;;;;15.18;100.00;99262.56;5589813;31;34055;-74
2023/10/22 02:18:02;;;;;;;24.30;7.50;;;;;;;15.20;100.00;99270.34;5589023;31;34099;-74
2023/10/22 02:21:05;;;;;;;16.45;6.95;;;;;;;15.18;100.00;99261.75;5589795;31;33348;-74
2023/10/22 02:24:08;;;;;;;20.00;7.30;;;;;;;15.25;100.00;99265.12;5589780;31;34111;-74
2023/10/22 02:27:12;;;;;;;21.17;7.70;;;;;;;15.23;100.00;99268.03;5589759;31;34526;-74
2023/10/22 02:30:14;;;;;;;20.10;7.60;;;;;;;15.20;100.00;99257.00;5589852;31;34123;-74
2023/10/22 02:33:19;;;;;;;18.33;7.25;;;;;;;15.23;100.00;99260.03;5589526;31;33961;-75
2023/10/22 02:36:22;;;;;;;19.37;7.03;;;;;;;15.18;100.00;99245.72;5589646;31;33886;-75
2023/10/22 02:39:25;;;;;;;21.30;8.73;;;;;;;15.21;100.00;99243.41;5589762;31;34089;-75
2023/10/22 02:42:27;;;;;;;22.67;9.13;;;;;;;15.15;100.00;99230.16;5589658;31;34132;-75
2023/10/22 02:45:31;;;;;;;22.52;9.57;;;;;;;15.11;100.00;99236.94;5589443;31;33957;-75
2023/10/22 02:48:33;;;;;;;23.90;10.52;;;;;;;15.08;100.00;99248.09;5589488;31;33970;-75
2023/10/22 02:51:37;;;;;;;21.65;10.23;;;;;;;15.10;100.00;99257.50;5589506;31;35485;-75
2023/10/22 02:54:40;;;;;;;25.65;11.43;;;;;;;15.11;100.00;99243.09;5589588;31;34065;-76
2023/10/22 02:57:44;;;;;;;23.75;10.82;;;;;;;15.12;100.00;99247.41;5589427;31;34063;-75
2023/10/22 03:00:47;;;;;;;26.92;11.02;;;;;;;15.09;100.00;99236.38;5589639;31;34111;-76
2023/10/22 03:03:50;;;;;;;24.98;10.88;;;;;;;15.04;100.00;99244.25;5589290;31;34069;-75
2023/10/22 03:06:54;;;;;;;28.17;11.18;;;;;;;15.03;100.00;99247.94;5589419;31;34199;-75
2023/10/22 03:09:57;;;;;;;25.25;11.65;;;;;;;15.02;100.00;99252.47;5588572;31;34023;-74
2023/10/22 03:12:59;;;;;;;22.77;11.90;;;;;;;15.02;100.00;99249.81;5589281;31;34047;-74
2023/10/22 03:16:07;;;;;;;29.02;12.43;;;;;;;15.03;100.00;99247.94;5589219;31;34078;-73
2023/10/22 03:19:11;;;;;;;25.35;11.93;;;;;;;15.06;100.00;99259.00;5589453;31;34574;-74
2023/10/22 03:22:15;;;;;;;24.35;11.48;;;;;;;15.05;100.00;99265.41;5588243;31;34001;-73
2023/10/22 03:25:21;;;;;;;24.55;12.55;;;;;;;15.04;100.00;99262.94;5589156;31;33991;-72
2023/10/22 03:28:24;;;;;;;29.00;14.68;;;;;;;15.08;100.00;99254.25;5589098;31;33898;-73
2023/10/22 03:31:27;;;;;;;27.37;12.30;;;;;;;15.03;100.00;99256.78;5589010;31;34656;-72
2023/10/22 03:34:30;;;;;;;20.80;11.35;;;;;;;15.01;100.00;99263.38;5588986;31;34612;-73
2023/10/22 03:37:33;;;;;;;26.62;11.88;;;;;;;15.03;100.00;99266.66;5589078;31;34047;-73
2023/10/22 03:40:36;;;;;;;29.98;12.20;;;;;;;15.02;100.00;99268.50;5588889;31;33983;-73
2023/10/22 03:43:39;;;;;;;27.30;12.13;;;;;;;15.05;100.00;99265.41;5588594;31;34293;-73
2023/10/22 03:46:46;;;;;;;31.12;12.18;;;;;;;15.06;100.00;99267.00;5588757;31;34281;-73
2023/10/22 03:49:49;;;;;;;31.05;12.18;;;;;;;15.07;100.00;99265.97;5588819;31;34043;-73
2023/10/22 03:52:52;;;;;;;31.83;11.85;;;;;;;15.12;100.00;99271.47;5588585;31;33988;-73
2023/10/22 03:55:55;;;;;;;28.92;11.70;;;;;;;15.11;100.00;99269.00;5588410;31;34072;-73
2023/10/22 03:58:59;;;;;;;26.77;10.95;;;;;;;15.12;100.00;99267.97;5588762;31;34091;-73
2023/10/22 04:02:02;;;;;;;28.67;11.93;;;;;;;15.12;100.00;99266.12;5588874;31;34041;-73
2023/10/22 04:05:05;;;;;;;23.62;11.55;;;;;;;15.14;100.00;99272.06;5588689;31;34000;-73
2023/10/22 04:08:08;;;;;;;30.65;13.30;;;;;;;15.15;100.00;99264.88;5588683;31;33953;-72
2023/10/22 04:11:11;;;;;;;41.47;14.87;;;;;;;15.11;100.00;99269.81;5588477;31;34197;-71
2023/10/22 04:14:14;;;;;;;55.22;17.12;;;;;;;15.14;100.00;99284.59;5588348;31;34081;-71
2023/10/22 04:17:17;;;;;;;56.40;18.23;;;;;;;15.03;100.00;99304.03;5588544;31;34696;-71
2023/10/22 04:20:20;;;;;;;35.03;17.55;;;;;;;14.99;100.00;99293.00;5588438;31;34029;-72
2023/10/22 04:23:23;;;;;;;36.75;19.42;;;;;;;14.99;100.00;99309.03;5588329;31;34096;-72
2023/10/22 04:26:27;;;;;;;32.97;17.48;;;;;;;14.99;100.00;99300.19;5587498;31;33952;-73
2023/10/22 04:29:30;;;;;;;41.15;19.52;;;;;;;15.02;100.00;99303.22;5588131;31;34048;-72
2023/10/22 04:32:33;;;;;;;39.03;19.90;;;;;;;15.00;100.00;99301.81;5587761;31;35097;-72
2023/10/22 04:35:36;;;;;;;37.75;18.95;;;;;;;14.99;100.00;99310.88;5588452;31;33970;-72
2023/10/22 04:38:39;;;;;;;30.33;18.17;;;;;;;15.03;100.00;99328.91;5588361;31;34047;-72
2023/10/22 04:41:43;;;;;;;33.78;16.77;;;;;;;15.02;100.00;99345.94;5587052;31;34821;-72
2023/10/22 04:44:46;;;;;;;22.87;12.60;;;;;;;15.01;100.00;99346.16;5587929;31;33921;-72
2023/10/22 04:47:49;;;;;;;25.30;13.62;;;;;;;15.02;100.00;99345.94;5587103;31;34027;-72
2023/10/22 04:50:53;;;;;;;24.23;13.48;;;;;;;15.01;100.00;99338.16;5587866;31;33923;-72
2023/10/22 04:53:56;;;;;;;22.02;9.85;;;;;;;14.95;100.00;99347.06;5587818;31;34799;-73
2023/10/22 04:57:02;;;;;;;25.52;11.65;;;;;;;14.90;100.00;99350.41;5587968;31;34848;-72
2023/10/22 05:00:07;;;;;;;17.55;9.82;;;;;;;14.90;100.00;99361.09;5587553;31;34763;-72
2023/10/22 05:03:10;;;;;;;15.13;4.90;;;;;;;14.85;100.00;99360.13;5587430;31;34937;-72
2023/10/22 05:06:13;;;;;;;11.70;4.82;;;;;;;14.82;100.00;99368.53;5588717;31;34068;-72
2023/10/22 05:09:16;;;;;;;9.80;5.10;;;;;;;14.63;100.00;99375.69;5590365;31;34097;-73
2023/10/22 05:12:19;;;;;;;11.40;4.00;;;;;;;14.56;100.00;99380.28;5590419;31;34020;-73
2023/10/22 05:15:21;;;;;;;5.55;3.05;;;;;;;14.53;100.00;99391.37;5590381;31;34677;-73
2023/10/22 05:18:28;;;;;;;5.78;2.80;;;;;;;14.50;100.00;99391.81;5590493;31;33993;-73
2023/10/22 05:21:30;;;;;;;7.15;2.35;;;;;;;14.50;100.00;99389.16;5590381;31;34580;-72
2023/10/22 05:24:33;;;;;;;6.68;2.60;;;;;;;14.48;100.00;99399.22;5590294;31;33926;-73
2023/10/22 05:27:36;;;;;;;4.90;2.12;;;;;;;14.47;100.00;99403.75;5590168;31;34098;-74
2023/10/22 05:30:39;;;;;;;8.43;2.28;;;;;;;14.51;100.00;99407.63;5590477;31;34101;-74
2023/10/22 05:33:42;;;;;;;6.78;2.40;;;;;;;14.53;100.00;99410.88;5590248;31;34662;-74
2023/10/22 05:36:45;;;;;;;6.00;3.08;;;;;;;14.57;100.00;99419.28;5590481;31;34032;-73
2023/10/22 05:39:48;;;;;;;8.50;3.12;;;;;;;14.61;100.00;99415.97;5589391;31;34155;-73
2023/10/22 05:42:51;;;;;;;9.05;3.20;;;;;;;14.64;100.00;99442.22;5590044;31;34857;-73
2023/10/22 05:45:56;;;;;;;10.30;3.53;;;;;;;14.69;100.00;99445.06;5589811;31;34129;-73
2023/10/22 05:49:00;;;;;;;7.10;3.60;;;;;;;14.76;100.00;99448.47;5589316;31;34005;-73
2023/10/22 05:52:03;;;;;;;9.23;3.62;;;;;;;14.79;100.00;99458.75;5590049;31;34031;-73
2023/10/22 05:55:07;;;;;;;9.95;4.18;;;;;;;14.86;100.00;99465.91;5590043;31;34749;-73
2023/10/22 05:58:10;;;;;;;5.97;3.72;;;;;;;14.86;100.00;99469.38;5590128;31;33993;-73
2023/10/22 06:01:13;;;;;;;8.57;3.70;;;;;;;14.91;100.00;99482.09;5590479;31;33984;-73
2023/10/22 06:04:17;;;;;;;11.93;4.53;;;;;;;14.92;100.00;99491.72;5589982;31;33977;-73
2023/10/22 06:07:19;;;;;;;8.93;4.30;;;;;;;14.89;100.00;99501.00;5590143;31;34582;-73
2023/10/22 06:10:22;;;;;;;11.52;4.75;;;;;;;14.96;100.00;99506.28;5589011;31;35224;-73
2023/10/22 06:13:25;;;;;;;14.35;5.28;;;;;;;14.91;100.00;99514.91;5589025;31;34098;-72
2023/10/22 06:16:27;;;;;;;11.05;4.60;;;;;;;14.94;100.00;99527.03;5589846;31;33941;-73
2023/10/22 06:19:31;;;;;;;8.52;4.82;;;;;;;14.95;100.00;99521.50;5589767;31;35448;-73
2023/10/22 06:22:34;;;;;;;26.45;6.18;;;;;;;15.01;100.00;99527.78;5590098;31;34281;-71
2023/10/22 06:25:36;;;;;;;18.98;6.78;;;;;;;15.02;100.00;99540.94;5589555;31;34914;-72
2023/10/22 06:28:41;;;;;;;14.38;5.07;;;;;;;14.95;100.00;99532.19;5589080;31;34044;-71
2023/10/22 06:31:44;;;;;;;12.55;4.57;;;;;;;14.99;100.00;99549.41;5590056;31;33963;-73
2023/10/22 06:34:47;;;;;;;11.45;4.47;;;;;;;15.00;100.00;99548.38;5589606;31;33947;-71
2023/10/22 06:37:51;;;;;;;11.50;4.47;;;;;;;15.02;100.00;99542.78;5589177;31;33941;-72
2023/10/22 06:40:54;;;;;;;9.48;4.18;;;;;;;15.07;100.00;99543.78;5589594;31;34078;-72
2023/10/22 06:43:57;;;;;;;8.35;4.10;;;;;;;15.08;100.00;99556.12;5589472;31;34656;-73
2023/10/22 06:47:00;;;;;;;10.30;4.22;;;;;;;15.14;100.00;99555.25;5589371;31;33897;-72
2023/10/22 06:50:13;;;;;;;9.98;3.65;;;;;;;15.20;100.00;99574.94;5589540;31;34997;-71
2023/10/22 06:53:16;;;;;;;8.20;3.33;;;;;;;15.17;100.00;99572.69;5589439;31;33372;-73
2023/10/22 06:56:18;;;;;;;10.48;3.70;;;;;;;15.21;100.00;99588.06;5589072;31;33948;-73
2023/10/22 06:59:21;;;;;;;6.37;2.80;;;;;;;15.52;100.00;99586.41;5589201;31;34891;-72
2023/10/22 07:02:25;;;;;;;3.70;2.22;;;;;;;15.54;100.00;99590.50;5589081;31;34080;-72
2023/10/22 07:05:28;;;;;;;3.53;2.50;;;;;;;15.15;100.00;99585.47;5589331;31;34986;-73
2023/10/22 07:08:31;;;;;;;4.97;2.90;;;;;;;14.97;100.00;99596.03;5588497;31;33958;-73
2023/10/22 07:11:35;;;;;;;4.72;3.30;;;;;;;14.91;100.00;99597.72;5589273;31;34636;-75
2023/10/22 07:14:38;;;;;;;5.22;3.70;;;;;;;14.95;100.00;99593.59;5589151;31;33995;-75
2023/10/22 07:17:41;;;;;;;7.43;4.10;;;;;;;14.98;100.00;99608.38;5588888;31;34041;-75
2023/10/22 07:20:44;;;;;;;6.85;5.00;;;;;;;14.96;100.00;99615.78;5589076;31;34734;-74
2023/10/22 07:23:48;;;;;;;6.32;4.50;;;;;;;14.77;100.00;99623.69;5588982;31;34023;-75
2023/10/22 07:26:50;;;;;;;7.43;4.70;;;;;;;14.72;100.00;99622.66;5588685;31;33962;-73
2023/10/22 07:29:53;;;;;;;6.97;4.32;;;;;;;14.63;100.00;99619.44;5587620;31;33908;-74
2023/10/22 07:32:57;;;;;;;6.87;4.20;;;;;;;14.69;100.00;99623.09;5589038;31;33910;-73
2023/10/22 07:36:00;;;;;;;6.50;3.72;;;;;;;14.87;100.00;99625.88;5589002;31;34974;-73
2023/10/22 07:39:03;;;;;;;5.70;3.70;;;;;;;14.98;100.00;99632.41;5588994;31;34553;-73
2023/10/22 07:42:07;;;;;;;9.23;3.75;;;;;;;15.22;100.00;99640.47;5588884;31;34033;-72
2023/10/22 07:45:10;;;;;;;4.90;3.08;;;;;;;15.82;100.00;99654.25;5574049;31;251360;-72
2023/10/22 07:48:14;;;;;;;5.07;2.97;;;;;;;16.58;100.00;99648.53;5588310;31;34907;-73
2023/10/22 07:51:19;;;;;;;4.78;2.65;;;;;;;17.67;100.00;99655.50;5588535;31;34708;-73
2023/10/22 07:54:22;;;;;;;4.40;2.50;;;;;;;17.12;100.00;99658.34;5588519;31;34672;-74
2023/10/22 07:57:26;;;;;;;4.50;2.50;;;;;;;17.67;100.00;99676.97;5588311;31;34752;-74
2023/10/22 08:00:29;;;;;;;5.82;2.83;;;;;;;16.85;100.00;99671.25;5588353;31;33929;-75
2023/10/22 08:03:33;;;;;;;4.47;2.53;;;;;;;16.23;100.00;99684.94;5588351;31;33936;-74
2023/10/22 08:06:36;;;;;;;4.12;2.95;;;;;;;16.15;100.00;99680.69;5588145;31;34103;-74
2023/10/22 08:09:39;;;;;;;5.10;2.35;;;;;;;16.03;100.00;99680.59;5588450;31;34020;-74
2023/10/22 08:12:42;;;;;;;4.22;3.40;;;;;;;16.27;100.00;99686.13;5587919;31;34087;-75
2023/10/22 08:15:46;;;;;;;4.22;2.40;;;;;;;17.29;100.00;99699.53;5588058;31;33948;-74
2023/10/22 08:18:49;;;;;;;5.28;2.47;;;;;;;17.82;100.00;99698.75;5588037;31;33932;-75
2023/10/22 08:21:52;;;;;;;4.37;2.08;;;;;;;17.55;100.00;99710.94;5587818;31;34026;-74
2023/10/22 08:24:55;;;;;;;3.65;1.70;;;;;;;17.09;100.00;99723.09;5587121;31;34045;-75
2023/10/22 08:27:58;;;;;;;4.78;1.87;;;;;;;17.02;100.00;99725.06;5587984;31;34023;-75
2023/10/22 08:31:01;;;;;;;4.18;1.80;;;;;;;17.51;100.00;99736.59;5587895;31;33960;-75
2023/10/22 08:34:04;;;;;;;2.72;1.75;;;;;;;17.28;100.00;99729.28;5586975;31;34053;-74
2023/10/22 08:37:07;;;;;;;4.95;1.42;;;;;;;17.65;100.00;99730.81;5587651;31;34155;-74
2023/10/22 08:40:10;;;;;;;2.67;1.40;;;;;;;17.64;100.00;99725.69;5588012;31;34849;-74
2023/10/22 08:43:17;;;;;;;2.67;1.10;;;;;;;17.74;100.00;99742.03;5590101;31;33991;-73
2023/10/22 08:46:20;;;;;;;3.92;1.40;;;;;;;16.87;100.00;99736.16;5590077;31;33920;-74
2023/10/22 08:49:24;;;;;;;1.67;1.10;;;;;;;16.90;100.00;99749.09;5590319;31;34920;-73
2023/10/22 08:52:27;;;;;;;1.48;0.95;;;;;;;16.99;100.00;99760.38;5589208;31;33929;-73
2023/10/22 08:55:31;;;;;;;3.15;1.20;;;;;;;17.41;100.00;99758.59;5590286;31;34780;-73
2023/10/22 08:58:33;;;;;;;2.78;1.10;;;;;;;17.02;100.00;99767.94;5590636;31;34000;-73
2023/10/22 09:01:36;;;;;;;4.12;1.50;;;;;;;17.13;100.00;99777.91;5590492;31;34016;-73
2023/10/22 09:04:40;;;;;;;3.10;1.00;;;;;;;17.06;100.00;99773.66;5590085;31;34967;-72
2023/10/22 09:07:51;;;;;;;3.15;1.10;;;;;;;17.10;100.00;99775.66;5589833;31;33921;-72
2023/10/22 09:10:55;;;;;;;2.00;1.33;;;;;;;16.75;100.00;99786.16;5590449;31;33967;-72
2023/10/22 09:13:57;;;;;;;1.23;0.80;;;;;;;16.77;100.00;99785.94;5589276;31;34624;-72
2023/10/22 09:17:20;;;;;;;1.85;1.10;;;;;;;17.14;100.00;99787.56;5589188;31;34842;-72
2023/10/22 09:20:22;;;;;;;2.35;1.02;;;;;;;16.99;100.00;99799.75;5590243;31;34654;-72
2023/10/22 09:23:26;;;;;;;1.50;1.10;;;;;;;17.36;100.00;99798.66;5587788;31;34071;-72
2023/10/22 09:26:49;;;;;;;2.65;1.00;;;;;;;17.47;100.00;99810.50;5589193;31;34612;-73
2023/10/22 09:29:58;;;;;;;2.55;1.37;;;;;;;17.36;100.00;99810.22;5589704;31;34681;-72
2023/10/22 09:33:01;;;;;;;3.00;1.10;;;;;;;17.44;100.00;99814.44;5589887;31;35007;-72
2023/10/22 09:36:08;;;;;;;6.07;1.50;;;;;;;17.70;100.00;99811.44;5590245;31;34822;-71
2023/10/22 09:39:11;;;;;;;2.72;1.33;;;;;;;17.81;100.00;99815.22;5589726;31;34020;-72
2023/10/22 09:42:17;;;;;;;4.78;1.95;;;;;;;17.72;100.00;99822.75;5590023;31;35362;-71
2023/10/22 09:45:23;;;;;;;2.70;1.23;;;;;;;17.39;100.00;99825.84;5589523;31;34063;-73
2023/10/22 09:48:33;;;;;;;3.25;1.00;;;;;;;17.02;100.00;99823.41;5589823;31;33991;-70
2023/10/22 09:51:36;;;;;;;;;;;;;;;17.01;100.00;99822.56;5589202;31;34049;-71
2023/10/22 09:54:40;;;;;;;2.12;1.12;;;;;;;16.76;100.00;99832.53;5589729;31;34793;-71
2023/10/22 09:57:46;;;;;;;3.75;1.20;;;;;;;16.62;100.00;99836.38;5589504;31;34710;-69
2023/10/22 10:00:49;;;;;;;3.00;1.17;;;;;;;16.46;100.00;99843.06;5589962;31;34693;-71
2023/10/22 10:03:57;;;;;;;2.47;1.10;;;;;;;16.36;100.00;99848.09;5589358;31;34736;-71
2023/10/22 10:07:04;;;;;;;1.55;0.93;;;;;;;16.31;100.00;99848.75;5589590;31;33910;-72
2023/10/22 10:10:08;;;;;;;3.05;1.05;;;;;;;16.16;100.00;99847.44;5589521;31;33783;-71
2023/10/22 10:13:11;;;;;;;4.93;1.23;;;;;;;15.98;100.00;99858.84;5589216;31;33913;-70
2023/10/22 10:16:14;;;;;;;1.35;0.85;;;;;;;15.82;100.00;99865.53;5589551;31;34156;-71
2023/10/22 10:19:21;;;;;;;2.17;0.80;;;;;;;15.87;100.00;99872.94;5589448;31;33982;-70
2023/10/22 10:22:44;;;;;;;3.15;0.90;;;;;;;15.78;100.00;99876.88;5588752;31;34545;-73
2023/10/22 10:25:49;;;;;;;1.77;1.00;;;;;;;15.89;100.00;99879.69;5589251;31;34733;-71
2023/10/22 10:28:52;;;;;;;2.28;1.00;;;;;;;15.75;100.00;99867.41;5588513;31;34057;-71
2023/10/22 10:32:15;;;;;;;3.62;1.10;;;;;;;15.95;100.00;99886.03;5589332;31;34638;-72
2023/10/22 10:35:19;;;;;;;2.40;0.90;;;;;;;16.07;100.00;99890.47;5589006;31;35002;-71
2023/10/22 10:38:22;;;;;;;3.70;0.80;;;;;;;15.73;100.00;99890.06;5588701;31;34603;-70
2023/10/22 10:41:51;;;;;;;3.62;0.90;;;;;;;15.77;100.00;99900.13;5589347;31;33926;-71
2023/10/22 10:44:57;;;;;;;2.15;0.90;;;;;;;15.75;100.00;99904.88;5583762;31;33956;-71
2023/10/22 10:48:01;;;;;;;1.55;0.60;;;;;;;15.67;100.00;99909.63;5588371;31;34277;-71
2023/10/22 10:51:17;;;;;;;1.45;0.65;;;;;;;15.45;100.00;99906.38;5589133;31;35583;-72
2023/10/22 10:54:21;;;;;;;2.58;0.70;;;;;;;15.37;100.00;99902.09;5589195;31;34570;-71
2023/10/22 10:57:46;;;;;;;3.45;0.60;;;;;;;15.34;100.00;99909.72;5589319;31;34002;-72
2023/10/22 11:00:52;;;;;;;2.45;0.68;;;;;;;15.50;100.00;99910.06;5589137;31;35484;-71
2023/10/22 11:04:07;;;;;;;2.17;0.77;;;;;;;15.61;100.00;99916.66;5587928;31;32596;-71
2023/10/22 11:07:11;;;;;;;1.83;0.70;;;;;;;15.86;100.00;99917.56;5589291;31;33986;-71
2023/10/22 11:10:17;;;;;;;1.25;0.60;;;;;;;15.83;100.00;99907.28;5589083;31;34015;-71
2023/10/22 11:13:26;;;;;;;3.50;0.70;;;;;;;16.05;100.00;99913.97;5588139;31;34416;-71
2023/10/22 11:16:28;;;;;;;2.35;0.70;;;;;;;16.30;100.00;99907.84;5589183;31;33944;-72
2023/10/22 11:19:33;;;;;;;1.37;0.60;;;;;;;16.46;100.00;99913.50;5587997;31;34722;-71
2023/10/22 11:22:36;;;;;;;1.50;0.80;;;;;;;16.32;100.00;99919.16;5588964;31;34156;-71
2023/10/22 11:25:42;;;;;;;4.72;1.17;;;;;;;16.45;100.00;99932.47;5589240;31;33916;-69
2023/10/22 11:28:45;;;;;;;1.23;0.62;;;;;;;16.53;100.00;99926.84;5589034;31;34264;-70
2023/10/22 11:31:53;;;;;;;2.70;0.73;;;;;;;16.53;100.00;99930.34;5588846;31;35596;-71
2023/10/22 11:35:00;;;;;;;1.05;0.50;;;;;;;16.54;100.00;99920.47;5588542;31;35421;-72
2023/10/22 11:38:05;;;;;;;1.62;0.50;;;;;;;16.59;100.00;99912.63;5588867;31;34024;-70
2023/10/22 11:41:08;;;;;;;1.25;0.50;;;;;;;17.00;100.00;99908.53;5588626;31;34516;-71
2023/10/22 11:44:34;;;;;;;2.85;0.65;;;;;;;17.26;100.00;99914.47;5588340;31;34289;-71
2023/10/22 11:47:38;;;;;;;1.12;0.55;;;;;;;16.94;100.00;99913.75;5588422;31;33938;-71
2023/10/22 11:51:01;;;;;;;1.70;0.60;;;;;;;17.17;100.00;99913.12;5588694;31;34082;-71
2023/10/22 11:54:04;;;;;;;1.23;0.80;;;;;;;17.33;100.00;99920.56;5588423;31;34069;-71
2023/10/22 11:57:07;;;;;;;2.90;0.60;;;;;;;17.18;100.00;99922.00;5588670;31;34881;-70
2023/10/22 12:00:10;;;;;;;1.83;0.62;;;;;;;17.12;100.00;99922.88;5588051;31;34069;-69
2023/10/22 12:03:14;;;;;;;2.17;0.60;;;;;;;17.04;100.00;99931.19;5586913;31;34054;-71
2023/10/22 12:06:17;;;;;;;2.85;0.50;;;;;;;16.97;100.00;99939.28;5588177;31;34737;-71
2023/10/22 12:09:19;;;;;;;1.42;0.60;;;;;;;17.09;100.00;99936.72;5588364;31;34632;-71
2023/10/22 12:12:23;;;;;;;1.73;0.60;;;;;;;17.29;100.00;99934.66;5588303;31;34704;-71
2023/10/22 12:15:26;;;;;;;0.80;0.60;;;;;;;17.12;100.00;99937.09;5588755;31;34324;-72
2023/10/22 12:18:29;;;;;;;2.03;0.60;;;;;;;17.00;100.00;99951.41;5590360;31;33995;-70
2023/10/22 12:21:32;;;;;;;1.90;0.70;;;;;;;16.74;100.00;99942.59;5590536;31;34131;-70
2023/10/22 12:24:35;;;;;;;2.40;0.60;;;;;;;16.55;100.00;99948.06;5590162;31;34089;-71
2023/10/22 12:27:38;;;;;;;1.62;0.50;;;;;;;16.70;100.00;99957.44;5590224;31;35626;-70
2023/10/22 12:30:40;;;;;;;1.77;0.50;;;;;;;16.77;100.00;99952.03;5590287;31;34003;-70
2023/10/22 12:33:44;;;;;;;2.78;0.65;;;;;;;16.60;100.00;99958.97;5589703;31;34065;-71
2023/10/22 12:36:47;;;;;;;1.55;0.80;;;;;;;16.63;100.00;99954.00;5590499;31;34016;-70
2023/10/22 12:39:50;;;;;;;1.20;0.70;;;;;;;16.96;100.00;99948.37;5590685;31;34040;-70
2023/10/22 12:42:53;;;;;;;3.22;0.77;;;;;;;16.95;100.00;99966.31;5590031;31;34673;-72
2023/10/22 12:45:56;;;;;;;1.62;0.55;;;;;;;16.75;100.00;99971.00;5589693;31;35032;-70
2023/10/22 12:48:59;;;;;;;3.60;0.60;;;;;;;16.56;100.00;99961.22;5590038;31;34771;-71
2023/10/22 12:52:05;;;;;;;1.30;0.60;;;;;;;16.78;100.00;99961.72;5589457;31;34113;-70
2023/10/22 12:55:08;;;;;;;3.85;0.70;;;;;;;16.85;100.00;99970.50;5590146;31;34170;-70
2023/10/22 12:58:11;;;;;;;2.42;0.80;;;;;;;17.18;100.00;99964.88;5589946;31;35585;-70
2023/10/22 13:01:18;;;;;;;1.00;0.60;;;;;;;17.70;100.00;99976.94;5590329;31;33947;-70
2023/10/22 13:04:21;;;;;;;2.65;0.70;;;;;;;17.80;100.00;99978.06;5589637;31;34783;-71
2023/10/22 13:07:24;;;;;;;2.25;0.50;;;;;;;17.90;100.00;99980.22;5589887;31;34728;-72
2023/10/22 13:10:32;;;;;;;1.55;0.50;;;;;;;18.16;100.00;99971.81;5588298;31;34129;-71
2023/10/22 13:13:34;;;;;;;1.08;0.55;;;;;;;18.41;100.00;99985.13;5589027;31;33999;-72
2023/10/22 13:16:37;;;;;;;2.95;0.65;;;;;;;18.19;100.00;99992.03;5589904;31;34269;-72
2023/10/22 13:19:40;;;;;;;1.77;0.68;;;;;;;18.00;100.00;99998.47;5589609;31;34026;-71
2023/10/22 13:22:43;;;;;;;3.40;0.80;;;;;;;17.61;100.00;100002.44;5589394;31;34324;-70
2023/10/22 13:25:46;;;;;;;2.45;0.60;;;;;;;17.52;100.00;99998.38;5589150;31;34827;-71
2023/10/22 13:28:49;;;;;;;3.58;0.70;;;;;;;17.70;100.00;99998.41;5589592;31;34117;-70
2023/10/22 13:31:52;;;;;;;2.70;0.88;;;;;;;17.72;100.00;99991.75;5589729;31;34151;-72
2023/10/22 13:34:55;;;;;;;3.35;0.60;;;;;;;17.95;100.00;99991.09;5589162;31;34400;-72
2023/10/22 13:37:58;;;;;;;2.83;0.60;;;;;;;17.87;100.00;99983.34;5589469;31;34118;-70
2023/10/22 13:41:02;;;;;;;1.70;0.60;;;;;;;17.67;100.00;99980.09;5589663;31;34108;-70
2023/10/22 13:44:05;;;;;;;1.37;0.60;;;;;;;17.24;100.00;99977.38;5589721;31;34260;-70
2023/10/22 13:47:08;;;;;;;2.12;0.60;;;;;;;17.11;100.00;99989.06;5589604;31;34942;-70
2023/10/22 13:50:13;;;;;;;2.12;0.70;;;;;;;17.07;100.00;99995.06;5589607;31;34805;-70
2023/10/22 13:53:15;;;;;;;2.37;0.75;;;;;;;16.64;100.00;99989.62;5589600;31;33987;-70
2023/10/22 13:56:18;;;;;;;3.12;0.75;;;;;;;16.64;100.00;99993.13;5589469;31;34122;-70
2023/10/22 13:59:21;;;;;;;4.12;0.75;;;;;;;16.58;100.00;100001.16;5590038;31;33615;-70
2023/10/22 14:02:24;;;;;;;2.42;0.70;;;;;;;16.50;100.00;100003.09;5589429;31;34052;-70
2023/10/22 14:05:27;;;;;;;3.50;0.77;;;;;;;16.38;100.00;100007.47;5589246;31;34106;-70
2023/10/22 14:08:29;;;;;;;2.72;0.70;;;;;;;16.39;100.00;100013.66;5589452;31;34656;-70